createdAt,value
2017-02-15T00:04:48.815Z,1024.9
2017-02-15T00:15:03.343Z,1024.9
2017-02-15T00:25:17.135Z,1024.8
2017-02-15T00:35:31.155Z,1024.8
2017-02-15T00:45:44.695Z,1024.9
2017-02-15T00:55:59.214Z,1024.9
2017-02-15T01:06:12.282Z,1024.9
2017-02-15T01:16:26.249Z,1025
2017-02-15T01:26:39.609Z,1025
2017-02-15T01:36:52.997Z,1025
2017-02-15T01:47:06.028Z,1024.9
2017-02-15T01:57:19.979Z,1024.9
2017-02-15T02:07:34.542Z,1024.8
2017-02-15T02:17:48.676Z,1024.8
2017-02-15T02:28:03.459Z,1024.8
2017-02-15T02:38:18.478Z,1024.8
2017-02-15T02:48:31.871Z,1024.8
2017-02-15T02:58:45.922Z,1024.9
2017-02-15T03:08:59.731Z,1025.1
2017-02-15T03:19:25.480Z,1025.2
2017-02-15T03:29:27.704Z,1025.2
2017-02-15T03:39:41.600Z,1025.2
2017-02-15T03:49:56.095Z,1025.2
2017-02-15T04:00:09.345Z,1025.3
2017-02-15T04:10:24.124Z,1025.3
2017-02-15T04:20:44.555Z,1025.4
2017-02-15T04:30:51.616Z,1025.4
2017-02-15T04:41:06.845Z,1025.4
2017-02-15T04:51:21.078Z,1025.4
2017-02-15T05:01:35.110Z,1025.4
2017-02-15T05:11:48.276Z,1025.4
2017-02-15T05:22:01.980Z,1025.5
2017-02-15T05:32:15.248Z,1025.4
2017-02-15T05:42:30.908Z,1025.5
2017-02-15T05:52:44.511Z,1025.5
2017-02-15T06:02:58.818Z,1025.5
2017-02-15T06:13:12.264Z,1025.5
2017-02-15T06:23:29.268Z,1025.7
2017-02-15T06:33:40.770Z,1025.7
2017-02-15T06:43:54.680Z,1025.8
2017-02-15T06:54:07.760Z,1025.9
2017-02-15T07:04:21.188Z,1026
2017-02-15T07:14:35.972Z,1026.1
2017-02-15T07:24:51.399Z,1026.1
2017-02-15T07:35:22.647Z,1026.3
2017-02-15T07:45:18.349Z,1026.4
2017-02-15T07:55:38.752Z,1026.4
2017-02-15T08:05:45.617Z,1026.4
2017-02-15T08:15:59.659Z,1026.4
2017-02-15T08:26:14.512Z,1026.4
2017-02-15T08:36:29.109Z,1026.3
2017-02-15T08:46:43.168Z,1026.5
2017-02-15T08:56:57.772Z,1026.5
2017-02-15T09:07:12.309Z,1026.6
2017-02-15T09:17:26.119Z,1026.5
2017-02-15T09:27:52.103Z,1026.5
2017-02-15T09:37:53.695Z,1026.5
2017-02-15T09:48:08.501Z,1026.5
2017-02-15T09:58:23.616Z,1026.5
2017-02-15T10:08:42.241Z,1026.5
2017-02-15T10:19:11.479Z,1026.5
2017-02-15T10:29:06.821Z,1026.5
2017-02-15T10:39:20.917Z,1026.5
2017-02-15T10:49:40.728Z,1026.3
2017-02-15T10:59:52.983Z,1026.3
2017-02-15T11:10:07.999Z,1026.2
2017-02-15T11:20:20.306Z,1026.1
2017-02-15T11:30:32.277Z,1026.1
2017-02-15T11:40:47.157Z,1026
2017-02-15T11:51:02.368Z,1025.9
2017-02-15T12:01:17.158Z,1025.9
2017-02-15T12:11:31.840Z,1025.7
2017-02-15T12:21:46.312Z,1025.6
2017-02-15T12:32:00.184Z,1025.5
2017-02-15T12:42:13.530Z,1025.5
2017-02-15T12:52:28.182Z,1025.5
2017-02-15T13:02:41.943Z,1025.4
2017-02-15T13:12:56.585Z,1025.3
2017-02-15T13:23:10.709Z,1025.3
2017-02-15T13:33:25.673Z,1025.3
2017-02-15T13:43:39.303Z,1025.3
2017-02-15T13:53:53.349Z,1025.2
2017-02-15T14:04:07.899Z,1025.1
2017-02-15T14:14:21.520Z,1025.1
2017-02-15T14:24:35.264Z,1025
2017-02-15T14:34:49.589Z,1025
2017-02-15T14:45:04.215Z,1024.9
2017-02-15T14:55:18.263Z,1025
2017-02-15T15:05:31.526Z,1024.9
2017-02-15T15:15:46.621Z,1024.8
2017-02-15T15:25:59.876Z,1024.8
2017-02-15T15:36:14.005Z,1024.7
2017-02-15T15:46:28.773Z,1024.6
2017-02-15T15:56:42.333Z,1024.5
2017-02-15T16:06:55.754Z,1024.5
2017-02-15T16:17:10.708Z,1024.5
2017-02-15T16:58:07.262Z,1024.3
2017-02-15T17:08:30.232Z,1024.2
2017-02-15T17:18:38.818Z,1024.2
2017-02-15T17:28:50.102Z,1024.2
2017-02-15T17:39:03.490Z,1024.2
2017-02-15T17:49:18.422Z,1024.2
2017-02-15T17:59:31.582Z,1024.1
2017-02-15T18:09:50.771Z,1024.2
2017-02-15T18:20:00.572Z,1024.1
2017-02-15T18:30:21.470Z,1024.1
2017-02-15T18:40:27.186Z,1024.1
2017-02-15T18:50:42.168Z,1024
2017-02-15T19:00:56.216Z,1023.9
2017-02-15T19:11:10.597Z,1023.9
2017-02-15T19:21:24.743Z,1023.8
2017-02-15T19:31:39.569Z,1023.9
2017-02-15T19:41:52.778Z,1023.8
2017-02-15T19:52:29.318Z,1023.9
2017-02-15T20:02:23.270Z,1023.9
2017-02-15T20:12:35.081Z,1023.9
2017-02-15T20:22:48.642Z,1024
2017-02-15T20:33:02.324Z,1024.1
2017-02-15T20:43:15.823Z,1024.1
2017-02-15T20:53:30.794Z,1024.1
2017-02-15T21:03:45.303Z,1024
2017-02-15T21:13:59.148Z,1024.1
2017-02-15T21:24:13.579Z,1024.1
2017-02-15T21:34:27.297Z,1024
2017-02-15T21:44:40.586Z,1024.1
2017-02-15T21:54:55.268Z,1024
2017-02-15T22:05:10.155Z,1023.9
2017-02-15T22:15:40.094Z,1023.8
2017-02-15T22:25:38.685Z,1023.8
2017-02-15T22:35:53.257Z,1023.9
2017-02-15T22:46:07.619Z,1023.9
2017-02-15T22:56:22.354Z,1023.9
2017-02-15T23:06:36.197Z,1023.9
2017-02-15T23:16:50.779Z,1023.9
2017-02-15T23:27:08.175Z,1023.8
2017-02-15T23:37:19.984Z,1023.8
2017-02-15T23:47:35.751Z,1023.8
2017-02-15T23:57:46.410Z,1023.8
